createdAt,value
2022-11-14T00:00:23.214Z,20.52
2022-11-14T00:04:47.086Z,17.75
2022-11-14T00:09:08.554Z,19.67
2022-11-14T00:13:30.275Z,19.27
2022-11-14T00:17:53.351Z,21.40
2022-11-14T00:22:15.367Z,19.70
2022-11-14T00:26:36.785Z,19.20
2022-11-14T00:30:58.037Z,19.83
2022-11-14T00:35:21.112Z,18.92
2022-11-14T00:39:42.816Z,22.00
2022-11-14T00:44:04.459Z,21.27
2022-11-14T00:48:25.975Z,20.52
2022-11-14T00:52:49.190Z,23.20
2022-11-14T00:57:10.767Z,18.75
2022-11-14T01:01:32.595Z,17.88
2022-11-14T01:05:53.919Z,19.52
2022-11-14T01:10:17.468Z,22.23
2022-11-14T01:14:41.128Z,21.92
2022-11-14T01:19:03.222Z,21.70
2022-11-14T01:23:25.005Z,21.08
2022-11-14T01:27:48.013Z,21.80
2022-11-14T01:32:09.807Z,19.73
2022-11-14T01:36:31.188Z,19.33
2022-11-14T01:40:52.926Z,21.42
2022-11-14T01:45:57.096Z,21.13
2022-11-14T01:50:20.284Z,22.13
2022-11-14T01:54:46.084Z,21.13
2022-11-14T01:59:12.528Z,21.27
2022-11-14T02:03:37.101Z,25.13
2022-11-14T02:07:59.857Z,18.90
2022-11-14T02:12:21.422Z,24.88
2022-11-14T02:16:55.711Z,24.00
2022-11-14T02:21:27.046Z,23.60
2022-11-14T02:25:48.823Z,23.67
2022-11-14T02:30:13.864Z,25.77
2022-11-14T02:34:36.027Z,22.27
2022-11-14T02:38:59.059Z,23.67
2022-11-14T02:43:21.117Z,22.15
2022-11-14T02:47:42.423Z,23.30
2022-11-14T02:52:04.358Z,22.63
2022-11-14T02:56:27.812Z,23.42
2022-11-14T03:01:14.093Z,21.95
2022-11-14T03:05:30.893Z,23.10
2022-11-14T03:09:52.746Z,21.63
2022-11-14T03:14:15.744Z,22.08
2022-11-14T03:18:38.088Z,19.42
2022-11-14T03:23:00.408Z,21.15
2022-11-14T03:27:21.962Z,18.13
2022-11-14T03:31:44.775Z,20.67
2022-11-14T03:36:07.780Z,16.75
2022-11-14T03:40:29.455Z,23.52
2022-11-14T03:44:50.891Z,22.80
2022-11-14T03:49:13.710Z,22.27
2022-11-14T03:53:35.587Z,19.25
2022-11-14T03:57:57.282Z,20.20
2022-11-14T04:02:18.935Z,20.80
2022-11-14T04:06:42.349Z,20.55
2022-11-14T04:11:03.901Z,21.80
2022-11-14T04:15:25.486Z,21.05
2022-11-14T04:19:47.123Z,24.10
2022-11-14T04:24:11.310Z,23.50
2022-11-14T04:28:33.080Z,23.58
2022-11-14T04:32:55.078Z,24.50
2022-11-14T04:37:16.796Z,24.20
2022-11-14T04:41:39.880Z,22.20
2022-11-14T04:46:01.417Z,22.10
2022-11-14T04:50:23.087Z,27.25
2022-11-14T04:54:44.625Z,25.05
2022-11-14T04:59:07.737Z,27.85
2022-11-14T05:03:29.054Z,26.80
2022-11-14T05:07:50.362Z,27.73
2022-11-14T05:12:12.139Z,26.60
2022-11-14T05:16:35.360Z,24.45
2022-11-14T05:20:59.584Z,25.38
2022-11-14T05:25:20.947Z,23.67
2022-11-14T05:29:42.477Z,24.95
2022-11-14T05:34:05.482Z,27.98
2022-11-14T05:38:26.950Z,26.15
2022-11-14T05:42:48.373Z,22.10
2022-11-14T05:47:10.079Z,25.15
2022-11-14T05:51:33.169Z,24.73
2022-11-14T05:55:55.648Z,22.17
2022-11-14T06:00:18.129Z,23.40
2022-11-14T06:04:39.580Z,25.73
2022-11-14T06:09:03.107Z,27.33
2022-11-14T06:13:24.945Z,23.48
2022-11-14T06:17:46.843Z,29.95
2022-11-14T06:22:08.558Z,26.52
2022-11-14T06:26:33.019Z,24.25
2022-11-14T06:30:58.904Z,26.42
2022-11-14T06:35:20.652Z,29.05
2022-11-14T06:39:42.255Z,23.30
2022-11-14T06:44:05.689Z,28.92
2022-11-14T06:48:27.871Z,25.48
2022-11-14T06:52:50.006Z,26.83
2022-11-14T06:57:11.387Z,24.02
2022-11-14T07:01:34.463Z,22.85
2022-11-14T07:05:59.092Z,24.27
2022-11-14T07:10:20.560Z,24.48
2022-11-14T07:14:42.799Z,25.90
2022-11-14T07:19:09.190Z,25.25
2022-11-14T07:23:31.999Z,23.55
2022-11-14T07:27:53.753Z,26.80
2022-11-14T07:32:15.526Z,27.58
2022-11-14T07:36:38.540Z,28.20
2022-11-14T07:41:01.341Z,22.15
2022-11-14T07:45:22.956Z,24.65
2022-11-14T07:49:44.439Z,23.70
2022-11-14T07:54:07.661Z,24.95
2022-11-14T07:58:29.270Z,23.52
2022-11-14T08:02:50.845Z,25.42
2022-11-14T08:07:12.690Z,21.40
2022-11-14T08:11:50.901Z,25.83
2022-11-14T08:16:14.114Z,21.10
2022-11-14T08:20:35.705Z,23.02
2022-11-14T08:24:57.317Z,21.48
2022-11-14T08:29:20.345Z,21.77
2022-11-14T08:33:41.667Z,22.15
2022-11-14T08:38:03.338Z,19.77
2022-11-14T08:42:24.863Z,22.48
2022-11-14T08:46:48.130Z,17.80
2022-11-14T08:51:09.514Z,21.83
2022-11-14T08:55:31.160Z,22.92
2022-11-14T08:59:52.718Z,22.98
2022-11-14T09:04:16.474Z,18.40
2022-11-14T09:08:38.762Z,19.60
2022-11-14T09:13:02.095Z,19.00
2022-11-14T09:17:23.341Z,18.95
2022-11-14T09:21:46.332Z,18.50
2022-11-14T09:26:08.784Z,19.35
2022-11-14T09:30:30.451Z,18.08
2022-11-14T09:34:51.854Z,21.38
2022-11-14T09:39:14.841Z,22.67
2022-11-14T09:44:14.164Z,18.63
2022-11-14T09:48:38.858Z,20.95
2022-11-14T09:53:06.109Z,20.02
2022-11-14T09:57:30.328Z,20.13
2022-11-14T10:02:03.404Z,18.90
2022-11-14T10:06:32.130Z,18.60
2022-11-14T10:10:55.794Z,19.67
2022-11-14T10:15:26.545Z,17.58
2022-11-14T10:20:01.758Z,18.90
2022-11-14T10:24:39.651Z,15.80
2022-11-14T10:29:28.904Z,15.18
2022-11-14T10:34:00.765Z,18.58
2022-11-14T10:38:28.337Z,21.13
2022-11-14T10:42:55.771Z,21.73
2022-11-14T10:47:20.882Z,18.33
2022-11-14T10:51:47.581Z,18.27
2022-11-14T10:56:12.681Z,20.30
2022-11-14T11:00:34.336Z,18.45
2022-11-14T11:05:12.935Z,18.00
2022-11-14T11:10:03.779Z,16.85
2022-11-14T11:14:25.487Z,19.13
2022-11-14T11:18:50.635Z,17.23
2022-11-14T11:23:19.966Z,18.50
2022-11-14T11:27:43.045Z,16.25
2022-11-14T11:32:04.576Z,19.80
2022-11-14T11:36:27.791Z,18.40
2022-11-14T11:40:52.468Z,18.02
2022-11-14T11:45:18.494Z,17.83
2022-11-14T11:49:51.740Z,16.95
2022-11-14T11:54:19.808Z,19.13
2022-11-14T11:58:46.777Z,18.02
2022-11-14T12:03:20.274Z,19.60
2022-11-14T12:07:47.671Z,19.98
2022-11-14T12:12:18.482Z,18.85
2022-11-14T12:17:04.681Z,20.05
2022-11-14T12:21:45.723Z,17.08
2022-11-14T12:26:21.270Z,19.33
2022-11-14T12:30:49.360Z,16.95
2022-11-14T12:35:19.750Z,16.35
2022-11-14T12:39:43.277Z,16.10
2022-11-14T12:44:19.864Z,19.55
2022-11-14T12:48:43.277Z,15.85
2022-11-14T12:53:04.862Z,18.90
2022-11-14T12:57:51.556Z,15.48
2022-11-14T13:02:28.490Z,17.40
2022-11-14T13:07:01.617Z,17.30
2022-11-14T13:11:55.498Z,19.55
2022-11-14T13:16:45.267Z,20.90
2022-11-14T13:21:34.726Z,16.85
2022-11-14T13:26:29.012Z,17.00
2022-11-14T13:31:20.391Z,17.90
2022-11-14T13:36:05.738Z,18.55
2022-11-14T13:40:35.853Z,18.60
2022-11-14T13:45:41.822Z,18.83
2022-11-14T13:50:06.603Z,16.00
2022-11-14T13:54:29.838Z,17.85
2022-11-14T13:59:09.051Z,18.33
2022-11-14T14:03:55.477Z,21.25
2022-11-14T14:08:29.613Z,21.30
2022-11-14T14:13:05.895Z,18.10
2022-11-14T14:17:35.054Z,19.33
2022-11-14T14:22:04.017Z,18.33
2022-11-14T14:26:34.723Z,19.40
2022-11-14T14:31:04.515Z,20.45
2022-11-14T14:35:27.791Z,18.92
2022-11-14T14:40:00.093Z,19.95
2022-11-14T14:44:26.586Z,21.63
2022-11-14T14:48:49.647Z,27.40
2022-11-14T14:53:21.388Z,20.27
2022-11-14T14:57:43.222Z,21.40
2022-11-14T15:02:04.888Z,24.65
2022-11-14T15:06:31.344Z,25.80
2022-11-14T15:10:59.540Z,25.83
2022-11-14T15:15:25.720Z,29.10
2022-11-14T15:19:48.127Z,23.90
2022-11-14T15:24:17.754Z,28.58
2022-11-14T15:28:39.315Z,28.52
2022-11-14T15:33:02.380Z,30.85
2022-11-14T15:37:25.216Z,28.30
2022-11-14T15:41:48.351Z,32.72
2022-11-14T15:46:29.172Z,29.17
2022-11-14T15:50:51.670Z,30.65
2022-11-14T15:55:16.469Z,29.73
2022-11-14T15:59:39.807Z,34.42
2022-11-14T16:04:01.849Z,29.50
2022-11-14T16:08:23.246Z,35.20
2022-11-14T16:12:50.944Z,28.17
2022-11-14T16:17:17.018Z,29.83
2022-11-14T16:21:38.769Z,29.25
2022-11-14T16:26:00.042Z,28.10
2022-11-14T16:30:23.428Z,32.25
2022-11-14T16:34:46.427Z,29.23
2022-11-14T16:39:11.442Z,32.05
2022-11-14T16:43:33.581Z,32.25
2022-11-14T16:47:55.274Z,31.15
2022-11-14T16:52:19.081Z,33.15
2022-11-14T16:56:41.194Z,28.48
2022-11-14T17:01:02.841Z,33.75
2022-11-14T17:05:24.767Z,32.03
2022-11-14T17:09:48.236Z,29.52
2022-11-14T17:14:09.769Z,34.03
2022-11-14T17:18:35.650Z,32.42
2022-11-14T17:23:00.330Z,30.45
2022-11-14T17:27:23.403Z,30.63
2022-11-14T17:31:47.197Z,29.58
2022-11-14T17:36:11.605Z,35.95
2022-11-14T17:40:33.353Z,35.72
2022-11-14T17:44:58.600Z,34.55
2022-11-14T17:49:20.454Z,32.58
2022-11-14T17:53:45.267Z,40.47
2022-11-14T17:58:07.522Z,31.02
2022-11-14T18:02:30.512Z,29.55
2022-11-14T18:06:52.213Z,34.40
2022-11-14T18:11:15.324Z,32.92
2022-11-14T18:15:38.999Z,31.25
2022-11-14T18:20:01.844Z,32.45
2022-11-14T18:24:23.953Z,29.02
2022-11-14T18:28:45.995Z,32.13
2022-11-14T18:33:07.466Z,27.25
2022-11-14T18:37:32.607Z,27.30
2022-11-14T18:41:54.598Z,30.17
2022-11-14T18:46:18.011Z,35.55
2022-11-14T18:50:39.955Z,28.10
2022-11-14T18:55:14.992Z,34.47
2022-11-14T18:59:36.527Z,31.92
2022-11-14T19:04:00.036Z,32.28
2022-11-14T19:08:21.778Z,32.80
2022-11-14T19:12:47.812Z,29.95
2022-11-14T19:17:09.528Z,28.33
2022-11-14T19:21:31.669Z,26.58
2022-11-14T19:25:54.057Z,26.67
2022-11-14T19:30:18.175Z,26.05
2022-11-14T19:34:39.516Z,28.60
2022-11-14T19:39:02.749Z,28.15
2022-11-14T19:43:26.106Z,32.40
2022-11-14T19:47:48.813Z,29.92
2022-11-14T19:52:10.129Z,34.95
2022-11-14T19:56:31.844Z,35.38
2022-11-14T20:00:53.944Z,36.65
2022-11-14T20:05:17.098Z,32.70
2022-11-14T20:09:38.854Z,32.13
2022-11-14T20:14:02.276Z,38.83
2022-11-14T20:18:24.445Z,32.78
2022-11-14T20:22:47.454Z,30.92
2022-11-14T20:27:09.645Z,32.70
2022-11-14T20:31:32.231Z,31.27
2022-11-14T20:35:53.632Z,33.10
2022-11-14T20:40:17.360Z,28.30
2022-11-14T20:44:39.374Z,32.05
2022-11-14T20:49:01.213Z,31.92
2022-11-14T20:53:23.548Z,30.38
2022-11-14T20:57:46.628Z,31.25
2022-11-14T21:02:08.683Z,30.65
2022-11-14T21:06:30.239Z,29.23
2022-11-14T21:10:59.369Z,27.20
2022-11-14T21:15:22.489Z,35.90
2022-11-14T21:19:43.880Z,29.83
2022-11-14T21:24:06.654Z,31.17
2022-11-14T21:28:29.916Z,32.97
2022-11-14T21:32:55.897Z,34.63
2022-11-14T21:37:17.252Z,33.13
2022-11-14T21:41:39.129Z,31.27
2022-11-14T21:46:02.611Z,32.63
2022-11-14T21:50:25.356Z,31.90
2022-11-14T21:54:46.754Z,29.08
2022-11-14T21:59:14.412Z,29.23
2022-11-14T22:03:54.292Z,31.02
2022-11-14T22:08:17.962Z,28.70
2022-11-14T22:12:39.654Z,31.38
2022-11-14T22:17:01.174Z,28.65
2022-11-14T22:21:23.406Z,27.83
2022-11-14T22:25:53.963Z,28.60
2022-11-14T22:30:15.399Z,31.15
2022-11-14T22:34:36.844Z,31.60
2022-11-14T22:38:58.868Z,30.70
2022-11-14T22:43:22.436Z,31.60
2022-11-14T22:47:44.063Z,30.70
2022-11-14T22:52:05.680Z,32.78
2022-11-14T22:56:29.288Z,28.27
2022-11-14T23:00:52.800Z,30.20
2022-11-14T23:05:14.206Z,33.42
2022-11-14T23:09:35.816Z,30.77
2022-11-14T23:13:59.305Z,35.17
2022-11-14T23:18:24.058Z,29.95
2022-11-14T23:22:46.001Z,33.22
2022-11-14T23:27:07.807Z,27.52
2022-11-14T23:31:29.214Z,26.83
2022-11-14T23:35:52.234Z,29.00
2022-11-14T23:40:13.828Z,23.80
2022-11-14T23:44:35.422Z,32.55
2022-11-14T23:48:57.057Z,27.50
2022-11-14T23:53:20.683Z,29.30
2022-11-14T23:57:42.537Z,32.75
